THY79K LTFM-KSFO
Flight info
| Callsign | THY79K |
|---|---|
| Flight time | N/A |
| Altitude | 38000 |
| Route | TUDBU4D TUDBU Q26 UPAMA DCT TIXIP DCT DEMOP DCT BABKO DCT KOLOB DCT REPKU DCT MAMIP DCT MORIG DCT 65N000E/M085F360 68N010W 70N020W 73N040W 73N060W DCT MEDPA/N0503F360 DCT 71N080W 69N090W 65N100W 59N110W DCT YZU DCT WASEN DCT EPH DCT BRUKK DCT LMT J65 RBL DCT MRRLO BDEGA4 |
| Aircraft | A359/H-VGDW/C |
Departure
| Time | 2026-05-01 08:38 |
|---|---|
| Airport | İstanbul Airport (LTFM) |
Arrival
| Time | N/A |
|---|---|
| Airport | San Francisco International Airport (KSFO) |
| Time | Latitude | Longitude | Altitude | Speed | Heading |
|---|---|---|---|---|---|
| 2026-05-01 08:03 | 41.26667 | 28.74120 | 320 ft | 0 kts | 89° |
| 2026-05-01 08:19 | 41.26667 | 28.74114 | 319 ft | 2 kts | 88° |
| 2026-05-01 08:19 | 41.26665 | 28.74093 | 316 ft | 2 kts | 82° |
| 2026-05-01 08:19 | 41.26662 | 28.74071 | 316 ft | 2 kts | 74° |
| 2026-05-01 08:20 | 41.26656 | 28.74050 | 315 ft | 2 kts | 60° |
| 2026-05-01 08:20 | 41.26646 | 28.74033 | 316 ft | 2 kts | 39° |
| 2026-05-01 08:20 | 41.26632 | 28.74022 | 316 ft | 2 kts | 15° |
| 2026-05-01 08:20 | 41.26617 | 28.74019 | 317 ft | 1 kts | 2° |
| 2026-05-01 08:21 | 41.26612 | 28.74019 | 317 ft | 0 kts | 1° |
| 2026-05-01 08:27 | 41.26619 | 28.74019 | 319 ft | 2 kts | 1° |
| 2026-05-01 08:27 | 41.26667 | 28.74019 | 319 ft | 9 kts | 359° |
| 2026-05-01 08:28 | 41.26721 | 28.74018 | 319 ft | 7 kts | 359° |
| 2026-05-01 08:28 | 41.26763 | 28.74016 | 319 ft | 5 kts | 359° |
| 2026-05-01 08:28 | 41.26792 | 28.74016 | 319 ft | 3 kts | 359° |
| 2026-05-01 08:28 | 41.26802 | 28.74016 | 319 ft | 0 kts | 359° |
| 2026-05-01 08:29 | 41.26838 | 28.74010 | 319 ft | 8 kts | 345° |
| 2026-05-01 08:29 | 41.26870 | 28.73974 | 319 ft | 5 kts | 303° |
| 2026-05-01 08:29 | 41.26876 | 28.73931 | 319 ft | 8 kts | 268° |
| 2026-05-01 08:29 | 41.26873 | 28.73809 | 319 ft | 18 kts | 269° |
| 2026-05-01 08:30 | 41.26871 | 28.73620 | 319 ft | 20 kts | 269° |
| 2026-05-01 08:30 | 41.26870 | 28.73450 | 319 ft | 17 kts | 269° |
| 2026-05-01 08:30 | 41.26868 | 28.73312 | 319 ft | 13 kts | 269° |
| 2026-05-01 08:30 | 41.26867 | 28.73203 | 318 ft | 11 kts | 269° |
| 2026-05-01 08:31 | 41.26866 | 28.73109 | 315 ft | 7 kts | 269° |
| 2026-05-01 08:31 | 41.26865 | 28.73056 | 314 ft | 4 kts | 266° |
| 2026-05-01 08:31 | 41.26851 | 28.73015 | 315 ft | 6 kts | 231° |
| 2026-05-01 08:31 | 41.26832 | 28.73000 | 315 ft | 0 kts | 204° |
| 2026-05-01 08:32 | 41.26826 | 28.72998 | 315 ft | 7 kts | 196° |
| 2026-05-01 08:32 | 41.26740 | 28.72984 | 315 ft | 8 kts | 201° |
| 2026-05-01 08:32 | 41.26729 | 28.72967 | 315 ft | 0 kts | 241° |
| 2026-05-01 08:34 | 41.26718 | 28.72913 | 315 ft | 15 kts | 262° |
| 2026-05-01 08:34 | 41.26715 | 28.72758 | 315 ft | 13 kts | 269° |
| 2026-05-01 08:34 | 41.26714 | 28.72681 | 316 ft | 0 kts | 269° |
| 2026-05-01 08:35 | 41.26714 | 28.72633 | 316 ft | 13 kts | 269° |
| 2026-05-01 08:35 | 41.26721 | 28.72550 | 316 ft | 10 kts | 298° |
| 2026-05-01 08:35 | 41.26770 | 28.72519 | 314 ft | 6 kts | 356° |
| 2026-05-01 08:36 | 41.26772 | 28.72518 | 314 ft | 0 kts | 356° |
| 2026-05-01 08:37 | 41.26807 | 28.72517 | 315 ft | 24 kts | 358° |
| 2026-05-01 08:37 | 41.27176 | 28.72508 | 304 ft | 81 kts | 359° |
| 2026-05-01 08:38 | 41.27920 | 28.72494 | 285 ft | 130 kts | 359° |
| 2026-05-01 08:38 | 41.28985 | 28.72465 | 281 ft | 171 kts | 3° |
| 2026-05-01 08:38 | 41.30218 | 28.72422 | 679 ft | 182 kts | 2° |
| 2026-05-01 08:38 | 41.31518 | 28.72354 | 1249 ft | 194 kts | 0° |
| 2026-05-01 08:39 | 41.32921 | 28.72175 | 1791 ft | 212 kts | 351° |
| 2026-05-01 08:39 | 41.34284 | 28.71317 | 2413 ft | 229 kts | 324° |
| 2026-05-01 08:39 | 41.35319 | 28.69604 | 2882 ft | 248 kts | 311° |
| 2026-05-01 08:39 | 41.36329 | 28.67653 | 3417 ft | 261 kts | 308° |
| 2026-05-01 08:40 | 41.38296 | 28.63560 | 4452 ft | 258 kts | 309° |
| 2026-05-01 08:40 | 41.39339 | 28.61651 | 4866 ft | 258 kts | 313° |
| 2026-05-01 08:40 | 41.40470 | 28.59778 | 4989 ft | 258 kts | 315° |
| 2026-05-01 08:41 | 41.41638 | 28.57995 | 4996 ft | 258 kts | 317° |
| 2026-05-01 08:41 | 41.42860 | 28.56223 | 4997 ft | 258 kts | 318° |
| 2026-05-01 08:41 | 41.44093 | 28.54476 | 5003 ft | 258 kts | 319° |
| 2026-05-01 08:41 | 41.45321 | 28.52760 | 5017 ft | 258 kts | 319° |
| 2026-05-01 08:42 | 41.46561 | 28.51009 | 5274 ft | 259 kts | 319° |
| 2026-05-01 08:42 | 41.47794 | 28.49256 | 5619 ft | 265 kts | 318° |
| 2026-05-01 08:42 | 41.49088 | 28.47411 | 6015 ft | 277 kts | 318° |
| 2026-05-01 08:42 | 41.50439 | 28.45490 | 6399 ft | 289 kts | 317° |
| 2026-05-01 08:43 | 41.51829 | 28.43499 | 6774 ft | 302 kts | 317° |
| 2026-05-01 08:43 | 41.53298 | 28.41389 | 7143 ft | 316 kts | 316° |
| 2026-05-01 08:43 | 41.54832 | 28.39165 | 7509 ft | 330 kts | 316° |
| 2026-05-01 08:43 | 41.56398 | 28.36886 | 7854 ft | 342 kts | 315° |
| 2026-05-01 08:44 | 41.58030 | 28.34496 | 8225 ft | 351 kts | 315° |
| 2026-05-01 08:44 | 41.59688 | 28.32069 | 8586 ft | 360 kts | 314° |
| 2026-05-01 08:44 | 41.61404 | 28.29562 | 8962 ft | 368 kts | 314° |
| 2026-05-01 08:44 | 41.63139 | 28.27018 | 9335 ft | 370 kts | 313° |
| 2026-05-01 08:45 | 41.64865 | 28.24487 | 9722 ft | 372 kts | 313° |
| 2026-05-01 08:45 | 41.66616 | 28.21920 | 10100 ft | 373 kts | 313° |
| 2026-05-01 08:45 | 41.68380 | 28.19338 | 10447 ft | 375 kts | 313° |
| 2026-05-01 08:45 | 41.70146 | 28.16756 | 10796 ft | 376 kts | 312° |
| 2026-05-01 08:46 | 41.71898 | 28.14193 | 11141 ft | 377 kts | 312° |
| 2026-05-01 08:46 | 41.73678 | 28.11588 | 11503 ft | 377 kts | 312° |
| 2026-05-01 08:46 | 41.75442 | 28.09001 | 11861 ft | 378 kts | 311° |
| 2026-05-01 08:46 | 41.77226 | 28.06383 | 12228 ft | 379 kts | 311° |
| 2026-05-01 08:47 | 41.78993 | 28.03789 | 12594 ft | 380 kts | 311° |
| 2026-05-01 08:47 | 41.80794 | 28.01145 | 12973 ft | 382 kts | 311° |
| 2026-05-01 08:47 | 41.82573 | 27.98532 | 13353 ft | 383 kts | 310° |
| 2026-05-01 08:47 | 41.84378 | 27.95873 | 13736 ft | 385 kts | 310° |
| 2026-05-01 08:48 | 41.86187 | 27.93206 | 14109 ft | 386 kts | 310° |
| 2026-05-01 08:48 | 41.87983 | 27.90557 | 14450 ft | 389 kts | 310° |
| 2026-05-01 08:48 | 41.89823 | 27.87837 | 14799 ft | 391 kts | 310° |
| 2026-05-01 08:48 | 41.91634 | 27.85157 | 15140 ft | 392 kts | 310° |
| 2026-05-01 08:49 | 41.93479 | 27.82427 | 15495 ft | 394 kts | 310° |
| 2026-05-01 08:49 | 41.95335 | 27.79680 | 15872 ft | 396 kts | 310° |
| 2026-05-01 08:49 | 41.97170 | 27.76963 | 16209 ft | 398 kts | 310° |
| 2026-05-01 08:49 | 41.99076 | 27.74237 | 16580 ft | 400 kts | 312° |
| 2026-05-01 08:50 | 42.01038 | 27.71553 | 16960 ft | 402 kts | 313° |
| 2026-05-01 08:50 | 42.03021 | 27.68888 | 17319 ft | 404 kts | 313° |
| 2026-05-01 08:50 | 42.04998 | 27.66236 | 17695 ft | 405 kts | 313° |
| 2026-05-01 08:50 | 42.06999 | 27.63538 | 18098 ft | 407 kts | 313° |
| 2026-05-01 08:51 | 42.08987 | 27.60839 | 18465 ft | 409 kts | 313° |
| 2026-05-01 08:51 | 42.10994 | 27.58096 | 18812 ft | 411 kts | 313° |
| 2026-05-01 08:51 | 42.13013 | 27.55326 | 19172 ft | 413 kts | 312° |
| 2026-05-01 08:51 | 42.15036 | 27.52541 | 19495 ft | 415 kts | 312° |
| 2026-05-01 08:52 | 42.17042 | 27.49776 | 19844 ft | 417 kts | 312° |
| 2026-05-01 08:52 | 42.19082 | 27.46961 | 20210 ft | 418 kts | 312° |
| 2026-05-01 08:52 | 42.21103 | 27.44169 | 20545 ft | 420 kts | 312° |
| 2026-05-01 08:52 | 42.23163 | 27.41323 | 20912 ft | 422 kts | 312° |
| 2026-05-01 08:53 | 42.25195 | 27.38514 | 21287 ft | 424 kts | 312° |
| 2026-05-01 08:53 | 42.27263 | 27.35651 | 21641 ft | 425 kts | 312° |
| 2026-05-01 08:53 | 42.29344 | 27.32768 | 22024 ft | 427 kts | 312° |
| 2026-05-01 08:53 | 42.31402 | 27.29916 | 22409 ft | 428 kts | 312° |
| 2026-05-01 08:54 | 42.33495 | 27.27012 | 22779 ft | 430 kts | 312° |
| 2026-05-01 08:54 | 42.35568 | 27.24131 | 23164 ft | 431 kts | 312° |
| 2026-05-01 08:54 | 42.37668 | 27.21209 | 23574 ft | 432 kts | 312° |
| 2026-05-01 08:54 | 42.39757 | 27.18300 | 23929 ft | 433 kts | 312° |
| 2026-05-01 08:55 | 42.41858 | 27.15371 | 24262 ft | 434 kts | 312° |
| 2026-05-01 08:55 | 42.43978 | 27.12413 | 24613 ft | 435 kts | 312° |
| 2026-05-01 08:55 | 42.46096 | 27.09455 | 24951 ft | 436 kts | 312° |
| 2026-05-01 08:55 | 42.48199 | 27.06515 | 25280 ft | 437 kts | 312° |
| 2026-05-01 08:56 | 42.50301 | 27.03574 | 25638 ft | 438 kts | 312° |
| 2026-05-01 08:56 | 42.52425 | 27.00599 | 25972 ft | 439 kts | 312° |
| 2026-05-01 08:56 | 42.54563 | 26.97602 | 26331 ft | 440 kts | 312° |
| 2026-05-01 08:56 | 42.56672 | 26.94640 | 26703 ft | 441 kts | 312° |
| 2026-05-01 08:57 | 42.58819 | 26.91623 | 27066 ft | 441 kts | 312° |
| 2026-05-01 08:57 | 42.60936 | 26.88644 | 27422 ft | 442 kts | 312° |
| 2026-05-01 08:57 | 42.63085 | 26.85617 | 27814 ft | 443 kts | 312° |
| 2026-05-01 08:57 | 42.65207 | 26.82626 | 28174 ft | 443 kts | 312° |
| 2026-05-01 08:58 | 42.67354 | 26.79595 | 28559 ft | 444 kts | 312° |
| 2026-05-01 08:58 | 42.69505 | 26.76556 | 28965 ft | 443 kts | 312° |
| 2026-05-01 08:58 | 42.71628 | 26.73554 | 29342 ft | 443 kts | 312° |
| 2026-05-01 08:58 | 42.73773 | 26.70518 | 29754 ft | 443 kts | 312° |
| 2026-05-01 08:59 | 42.75884 | 26.67526 | 30172 ft | 442 kts | 312° |
| 2026-05-01 08:59 | 42.78025 | 26.64489 | 30525 ft | 441 kts | 312° |
| 2026-05-01 08:59 | 42.80137 | 26.61490 | 30868 ft | 441 kts | 312° |
| 2026-05-01 08:59 | 42.82272 | 26.58456 | 31239 ft | 439 kts | 312° |
| 2026-05-01 09:00 | 42.84368 | 26.55475 | 31570 ft | 438 kts | 312° |
| 2026-05-01 09:00 | 42.86479 | 26.52471 | 31924 ft | 436 kts | 312° |
| 2026-05-01 09:00 | 42.88556 | 26.49511 | 32284 ft | 434 kts | 312° |
| 2026-05-01 09:00 | 42.90643 | 26.46533 | 32646 ft | 432 kts | 312° |
| 2026-05-01 09:01 | 42.92715 | 26.43574 | 33022 ft | 429 kts | 312° |
| 2026-05-01 09:01 | 42.94775 | 26.40627 | 33385 ft | 426 kts | 312° |
| 2026-05-01 09:01 | 42.96821 | 26.37699 | 33765 ft | 423 kts | 312° |
| 2026-05-01 09:01 | 42.98819 | 26.34837 | 34143 ft | 420 kts | 312° |
| 2026-05-01 09:02 | 43.00831 | 26.31951 | 34483 ft | 416 kts | 312° |
| 2026-05-01 09:02 | 43.02823 | 26.29093 | 34810 ft | 411 kts | 312° |
| 2026-05-01 09:02 | 43.04765 | 26.26303 | 35123 ft | 406 kts | 312° |
| 2026-05-01 09:02 | 43.06705 | 26.23513 | 35451 ft | 400 kts | 312° |
| 2026-05-01 09:03 | 43.08617 | 26.20760 | 35785 ft | 394 kts | 311° |
| 2026-05-01 09:03 | 43.10472 | 26.18086 | 36015 ft | 390 kts | 311° |
| 2026-05-01 09:03 | 43.12345 | 26.15383 | 36181 ft | 388 kts | 311° |
| 2026-05-01 09:03 | 43.14209 | 26.12690 | 36287 ft | 387 kts | 311° |
| 2026-05-01 09:04 | 43.17898 | 26.07354 | 36438 ft | 387 kts | 311° |
| 2026-05-01 09:04 | 43.21595 | 26.01997 | 36565 ft | 387 kts | 311° |
| 2026-05-01 09:05 | 43.25290 | 25.96634 | 36646 ft | 387 kts | 311° |
| 2026-05-01 09:05 | 43.28993 | 25.91248 | 36715 ft | 388 kts | 311° |
| 2026-05-01 09:06 | 43.32695 | 25.85855 | 36790 ft | 389 kts | 311° |
| 2026-05-01 09:06 | 43.36393 | 25.80457 | 36850 ft | 390 kts | 311° |
| 2026-05-01 09:07 | 43.40116 | 25.75012 | 36910 ft | 390 kts | 311° |
| 2026-05-01 09:07 | 43.43825 | 25.69577 | 36982 ft | 391 kts | 311° |
| 2026-05-01 09:08 | 43.47543 | 25.64119 | 37032 ft | 392 kts | 311° |
| 2026-05-01 09:08 | 43.51273 | 25.58632 | 37086 ft | 392 kts | 311° |
| 2026-05-01 09:09 | 43.55011 | 25.53124 | 37155 ft | 393 kts | 312° |
| 2026-05-01 09:09 | 43.58739 | 25.47619 | 37224 ft | 393 kts | 312° |
| 2026-05-01 09:10 | 43.62486 | 25.42182 | 37280 ft | 394 kts | 315° |
| 2026-05-01 09:10 | 43.66590 | 25.37108 | 37321 ft | 395 kts | 317° |
| 2026-05-01 09:11 | 43.70748 | 25.32147 | 37379 ft | 395 kts | 318° |
| 2026-05-01 09:11 | 43.74903 | 25.27210 | 37439 ft | 396 kts | 318° |
| 2026-05-01 09:12 | 43.79064 | 25.22244 | 37482 ft | 396 kts | 318° |
| 2026-05-01 09:12 | 43.83229 | 25.17252 | 37535 ft | 396 kts | 318° |
| 2026-05-01 09:13 | 43.87414 | 25.12223 | 37583 ft | 396 kts | 318° |
| 2026-05-01 09:13 | 43.91571 | 25.07218 | 37636 ft | 396 kts | 318° |
| 2026-05-01 09:14 | 43.95725 | 25.02208 | 37687 ft | 397 kts | 318° |
| 2026-05-01 09:14 | 43.99874 | 24.97194 | 37708 ft | 397 kts | 318° |
| 2026-05-01 09:15 | 44.04042 | 24.92148 | 37727 ft | 398 kts | 318° |
| 2026-05-01 09:15 | 44.08230 | 24.87067 | 37755 ft | 398 kts | 318° |
| 2026-05-01 09:16 | 44.12387 | 24.82015 | 37795 ft | 399 kts | 318° |
| 2026-05-01 09:17 | 44.18663 | 24.74369 | 37826 ft | 399 kts | 318° |
| 2026-05-01 09:17 | 44.24930 | 24.66710 | 37869 ft | 400 kts | 318° |
| 2026-05-01 09:18 | 44.31209 | 24.59015 | 37893 ft | 401 kts | 318° |
| 2026-05-01 09:19 | 44.37483 | 24.51302 | 37920 ft | 402 kts | 318° |
| 2026-05-01 09:20 | 44.43793 | 24.43523 | 37967 ft | 403 kts | 318° |
| 2026-05-01 09:21 | 44.52216 | 24.33103 | 38002 ft | 405 kts | 318° |
| 2026-05-01 09:21 | 44.58526 | 24.25267 | 38029 ft | 406 kts | 318° |
| 2026-05-01 09:22 | 44.66285 | 24.15602 | 38034 ft | 408 kts | 319° |
| 2026-05-01 09:23 | 44.72682 | 24.07605 | 38044 ft | 411 kts | 319° |
| 2026-05-01 09:24 | 44.79091 | 23.99570 | 38054 ft | 414 kts | 319° |
| 2026-05-01 09:25 | 44.87720 | 23.88710 | 38052 ft | 418 kts | 319° |
| 2026-05-01 09:26 | 44.94262 | 23.80448 | 38055 ft | 422 kts | 319° |
| 2026-05-01 09:26 | 45.00856 | 23.72093 | 38050 ft | 427 kts | 319° |
| 2026-05-01 09:27 | 45.07490 | 23.63658 | 38048 ft | 432 kts | 319° |
| 2026-05-01 09:28 | 45.11983 | 23.57932 | 38049 ft | 435 kts | 319° |
| 2026-05-01 09:28 | 45.16485 | 23.52180 | 38085 ft | 438 kts | 319° |
| 2026-05-01 09:29 | 45.23308 | 23.43439 | 38103 ft | 443 kts | 319° |
| 2026-05-01 09:30 | 45.30229 | 23.34542 | 38101 ft | 450 kts | 319° |
| 2026-05-01 09:30 | 45.37224 | 23.25519 | 38100 ft | 457 kts | 319° |
| 2026-05-01 09:31 | 45.41970 | 23.19379 | 38096 ft | 462 kts | 319° |
| 2026-05-01 09:32 | 45.49146 | 23.10068 | 38103 ft | 469 kts | 319° |
| 2026-05-01 09:32 | 45.56431 | 23.00582 | 38104 ft | 476 kts | 319° |
| 2026-05-01 09:33 | 45.61343 | 22.94166 | 38109 ft | 481 kts | 319° |
| 2026-05-01 09:34 | 45.68771 | 22.84429 | 38110 ft | 485 kts | 319° |
| 2026-05-01 09:34 | 45.76204 | 22.74647 | 38111 ft | 484 kts | 319° |
| 2026-05-01 09:35 | 45.83705 | 22.64896 | 38114 ft | 483 kts | 324° |
| 2026-05-01 09:36 | 45.89035 | 22.59091 | 38114 ft | 482 kts | 326° |
| 2026-05-01 09:36 | 45.94420 | 22.53423 | 38116 ft | 481 kts | 326° |
| 2026-05-01 09:37 | 45.99833 | 22.47747 | 38118 ft | 481 kts | 326° |
| 2026-05-01 09:37 | 46.07923 | 22.39210 | 38119 ft | 480 kts | 326° |
| 2026-05-01 09:38 | 46.15991 | 22.30647 | 38113 ft | 480 kts | 326° |
| 2026-05-01 09:39 | 46.24048 | 22.22059 | 38121 ft | 479 kts | 326° |
| 2026-05-01 09:39 | 46.29397 | 22.16342 | 38120 ft | 479 kts | 326° |
| 2026-05-01 09:40 | 46.37434 | 22.07724 | 38135 ft | 479 kts | 326° |
| 2026-05-01 09:41 | 46.42769 | 22.01985 | 38119 ft | 479 kts | 327° |
| 2026-05-01 09:41 | 46.50776 | 21.93347 | 38135 ft | 479 kts | 327° |
| 2026-05-01 09:42 | 46.56133 | 21.87549 | 38130 ft | 479 kts | 327° |
| 2026-05-01 09:43 | 46.66831 | 21.75926 | 38139 ft | 480 kts | 327° |
| 2026-05-01 09:43 | 46.72161 | 21.70114 | 38146 ft | 480 kts | 327° |
| 2026-05-01 09:44 | 46.80169 | 21.61354 | 38152 ft | 480 kts | 327° |
| 2026-05-01 09:45 | 46.85490 | 21.55513 | 38153 ft | 479 kts | 327° |
| 2026-05-01 09:45 | 46.93482 | 21.46709 | 38156 ft | 479 kts | 327° |
| 2026-05-01 09:46 | 46.98786 | 21.40852 | 38154 ft | 478 kts | 327° |
| 2026-05-01 09:46 | 47.04110 | 21.34958 | 38156 ft | 478 kts | 327° |
| 2026-05-01 09:47 | 47.09399 | 21.29087 | 38159 ft | 478 kts | 327° |
| 2026-05-01 09:47 | 47.14688 | 21.23200 | 38159 ft | 478 kts | 327° |
| 2026-05-01 09:48 | 47.20000 | 21.17271 | 38168 ft | 478 kts | 327° |
| 2026-05-01 09:48 | 47.25286 | 21.11356 | 38161 ft | 478 kts | 327° |
| 2026-05-01 09:49 | 47.30558 | 21.05444 | 38173 ft | 478 kts | 327° |
| 2026-05-01 09:49 | 47.35850 | 20.99494 | 38181 ft | 478 kts | 327° |
| 2026-05-01 09:50 | 47.41133 | 20.93534 | 38157 ft | 478 kts | 327° |
| 2026-05-01 09:50 | 47.46391 | 20.87586 | 38174 ft | 478 kts | 327° |
| 2026-05-01 09:51 | 47.51661 | 20.81613 | 38171 ft | 477 kts | 327° |
| 2026-05-01 09:51 | 47.56917 | 20.75639 | 38174 ft | 477 kts | 328° |
| 2026-05-01 09:52 | 47.62177 | 20.69647 | 38167 ft | 477 kts | 328° |
| 2026-05-01 09:52 | 47.67457 | 20.63620 | 38166 ft | 476 kts | 328° |
| 2026-05-01 09:53 | 47.72672 | 20.57656 | 38164 ft | 475 kts | 328° |
| 2026-05-01 09:53 | 47.77924 | 20.51630 | 38162 ft | 475 kts | 328° |
| 2026-05-01 09:54 | 47.83123 | 20.45648 | 38161 ft | 474 kts | 328° |
| 2026-05-01 09:54 | 47.88321 | 20.39647 | 38161 ft | 473 kts | 328° |
| 2026-05-01 09:55 | 47.93539 | 20.33610 | 38156 ft | 472 kts | 328° |
| 2026-05-01 09:55 | 47.98705 | 20.27615 | 38148 ft | 472 kts | 328° |
| 2026-05-01 09:56 | 48.03868 | 20.21604 | 38153 ft | 471 kts | 328° |
| 2026-05-01 09:56 | 48.09052 | 20.15546 | 38149 ft | 470 kts | 328° |
| 2026-05-01 09:57 | 48.14199 | 20.09572 | 38147 ft | 468 kts | 330° |
| 2026-05-01 09:57 | 48.19798 | 20.04996 | 38150 ft | 454 kts | 345° |
| 2026-05-01 09:58 | 48.25792 | 20.02252 | 38148 ft | 450 kts | 349° |
| 2026-05-01 09:58 | 48.31860 | 19.99862 | 38144 ft | 449 kts | 351° |
| 2026-05-01 09:59 | 48.37903 | 19.97524 | 38141 ft | 449 kts | 350° |
| 2026-05-01 09:59 | 48.43922 | 19.95146 | 38138 ft | 449 kts | 350° |
| 2026-05-01 10:00 | 48.49988 | 19.92713 | 38139 ft | 449 kts | 350° |
| 2026-05-01 10:00 | 48.56016 | 19.90280 | 38136 ft | 449 kts | 349° |
| 2026-05-01 10:01 | 48.62070 | 19.87829 | 38134 ft | 449 kts | 350° |
| 2026-05-01 10:01 | 48.68086 | 19.85395 | 38129 ft | 449 kts | 350° |
| 2026-05-01 10:02 | 48.74137 | 19.82944 | 38129 ft | 449 kts | 350° |
| 2026-05-01 10:02 | 48.80189 | 19.80481 | 38137 ft | 450 kts | 349° |
| 2026-05-01 10:03 | 48.86205 | 19.78028 | 38133 ft | 449 kts | 349° |
| 2026-05-01 10:03 | 48.92269 | 19.75552 | 38133 ft | 450 kts | 349° |
| 2026-05-01 10:04 | 48.98289 | 19.73087 | 38136 ft | 449 kts | 349° |
| 2026-05-01 10:04 | 49.04349 | 19.70598 | 38138 ft | 449 kts | 349° |
| 2026-05-01 10:05 | 49.10354 | 19.68125 | 38147 ft | 449 kts | 349° |
| 2026-05-01 10:05 | 49.16411 | 19.65626 | 38137 ft | 450 kts | 349° |
| 2026-05-01 10:06 | 49.22434 | 19.63134 | 38150 ft | 450 kts | 349° |
| 2026-05-01 10:06 | 49.28486 | 19.60620 | 38153 ft | 450 kts | 349° |
| 2026-05-01 10:07 | 49.34506 | 19.58115 | 38161 ft | 450 kts | 349° |
| 2026-05-01 10:07 | 49.40538 | 19.55601 | 38158 ft | 450 kts | 349° |
| 2026-05-01 10:08 | 49.48624 | 19.52220 | 38166 ft | 451 kts | 349° |
| 2026-05-01 10:09 | 49.54662 | 19.49686 | 38162 ft | 451 kts | 349° |
| 2026-05-01 10:09 | 49.60696 | 19.46973 | 38165 ft | 454 kts | 344° |
| 2026-05-01 10:10 | 49.66483 | 19.42965 | 38163 ft | 459 kts | 339° |
| 2026-05-01 10:10 | 49.75056 | 19.36402 | 38163 ft | 460 kts | 338° |
| 2026-05-01 10:11 | 49.80786 | 19.31971 | 38167 ft | 460 kts | 339° |
| 2026-05-01 10:11 | 49.86525 | 19.27546 | 38166 ft | 460 kts | 339° |
| 2026-05-01 10:12 | 49.92236 | 19.23144 | 38163 ft | 460 kts | 338° |
| 2026-05-01 10:13 | 50.00852 | 19.16483 | 38169 ft | 460 kts | 338° |
| 2026-05-01 10:13 | 50.06565 | 19.12050 | 38167 ft | 460 kts | 338° |
| 2026-05-01 10:14 | 50.15159 | 19.05359 | 38165 ft | 460 kts | 338° |
| 2026-05-01 10:14 | 50.20909 | 19.00867 | 38162 ft | 460 kts | 338° |
| 2026-05-01 10:15 | 50.26621 | 18.96392 | 38162 ft | 461 kts | 338° |
| 2026-05-01 10:15 | 50.32367 | 18.91878 | 38154 ft | 460 kts | 338° |
| 2026-05-01 10:16 | 50.35196 | 18.89651 | 38294 ft | 458 kts | 338° |
| 2026-05-01 10:16 | 50.38064 | 18.87390 | 38352 ft | 460 kts | 338° |
| 2026-05-01 10:17 | 50.46633 | 18.80619 | 38347 ft | 460 kts | 338° |
| 2026-05-01 10:17 | 50.55225 | 18.73801 | 38351 ft | 460 kts | 338° |
| 2026-05-01 10:18 | 50.63780 | 18.66984 | 38356 ft | 460 kts | 338° |
| 2026-05-01 10:19 | 50.69519 | 18.62394 | 38355 ft | 460 kts | 338° |
| 2026-05-01 10:19 | 50.75183 | 18.57853 | 38350 ft | 460 kts | 338° |
| 2026-05-01 10:20 | 50.83738 | 18.50970 | 38363 ft | 460 kts | 337° |
| 2026-05-01 10:20 | 50.89451 | 18.46359 | 38350 ft | 460 kts | 337° |
| 2026-05-01 10:21 | 50.98025 | 18.39414 | 38355 ft | 461 kts | 337° |
| 2026-05-01 10:22 | 51.06566 | 18.32467 | 38364 ft | 460 kts | 337° |
| 2026-05-01 10:23 | 51.15102 | 18.25494 | 38364 ft | 461 kts | 337° |
| 2026-05-01 10:23 | 51.23669 | 18.18466 | 38365 ft | 461 kts | 337° |
| 2026-05-01 10:24 | 51.35046 | 18.09087 | 38366 ft | 460 kts | 337° |
| 2026-05-01 10:25 | 51.46407 | 17.99667 | 38365 ft | 460 kts | 336° |
| 2026-05-01 10:26 | 51.52112 | 17.94918 | 38373 ft | 460 kts | 336° |
| 2026-05-01 10:27 | 51.63416 | 17.85467 | 38364 ft | 459 kts | 336° |
| 2026-05-01 10:28 | 51.71942 | 17.78304 | 38371 ft | 459 kts | 336° |
| 2026-05-01 10:28 | 51.80433 | 17.71141 | 38368 ft | 459 kts | 336° |
| 2026-05-01 10:29 | 51.88918 | 17.63949 | 38375 ft | 459 kts | 336° |
| 2026-05-01 10:30 | 52.00211 | 17.54332 | 38374 ft | 459 kts | 336° |
| 2026-05-01 10:31 | 52.11463 | 17.44693 | 38378 ft | 459 kts | 336° |
| 2026-05-01 10:32 | 52.19944 | 17.37392 | 38375 ft | 459 kts | 336° |
| 2026-05-01 10:33 | 52.31199 | 17.27653 | 38372 ft | 459 kts | 336° |
| 2026-05-01 10:34 | 52.39664 | 17.20291 | 38373 ft | 458 kts | 336° |
| 2026-05-01 10:34 | 52.45294 | 17.15377 | 38376 ft | 458 kts | 336° |
| 2026-05-01 10:35 | 52.53707 | 17.08007 | 38371 ft | 458 kts | 336° |
| 2026-05-01 10:35 | 52.59325 | 17.03067 | 38373 ft | 458 kts | 336° |
| 2026-05-01 10:36 | 52.67719 | 16.95659 | 38376 ft | 457 kts | 336° |
| 2026-05-01 10:37 | 52.73341 | 16.90680 | 38373 ft | 457 kts | 336° |
| 2026-05-01 10:37 | 52.81750 | 16.83205 | 38375 ft | 457 kts | 336° |
| 2026-05-01 10:38 | 52.87321 | 16.78235 | 38372 ft | 457 kts | 335° |
| 2026-05-01 10:38 | 52.92925 | 16.73219 | 38373 ft | 457 kts | 335° |
| 2026-05-01 10:39 | 52.98526 | 16.68194 | 38375 ft | 457 kts | 335° |
| 2026-05-01 10:39 | 53.04087 | 16.63187 | 38375 ft | 457 kts | 335° |
| 2026-05-01 10:40 | 53.09681 | 16.58137 | 38387 ft | 457 kts | 335° |
| 2026-05-01 10:40 | 53.15271 | 16.53073 | 38364 ft | 457 kts | 335° |
| 2026-05-01 10:41 | 53.20824 | 16.48031 | 38381 ft | 456 kts | 335° |
| 2026-05-01 10:42 | 53.29185 | 16.40409 | 38359 ft | 456 kts | 335° |
| 2026-05-01 10:42 | 53.34757 | 16.35310 | 38379 ft | 456 kts | 335° |
| 2026-05-01 10:43 | 53.40319 | 16.30205 | 38376 ft | 455 kts | 335° |
| 2026-05-01 10:43 | 53.45868 | 16.25095 | 38380 ft | 455 kts | 335° |
| 2026-05-01 10:44 | 53.51427 | 16.19960 | 38383 ft | 455 kts | 335° |
| 2026-05-01 10:44 | 53.56941 | 16.14854 | 38384 ft | 455 kts | 335° |
| 2026-05-01 10:45 | 53.62482 | 16.09708 | 38387 ft | 454 kts | 335° |
| 2026-05-01 10:45 | 53.68026 | 16.04542 | 38393 ft | 454 kts | 335° |
| 2026-05-01 10:46 | 53.73559 | 15.99372 | 38384 ft | 454 kts | 335° |
| 2026-05-01 10:46 | 53.79042 | 15.94232 | 38389 ft | 453 kts | 335° |
| 2026-05-01 10:47 | 53.84558 | 15.89045 | 38395 ft | 453 kts | 335° |
| 2026-05-01 10:47 | 53.90074 | 15.83842 | 38402 ft | 453 kts | 335° |
| 2026-05-01 10:48 | 53.95578 | 15.78635 | 38401 ft | 452 kts | 335° |
| 2026-05-01 10:48 | 54.01049 | 15.73444 | 38405 ft | 452 kts | 335° |
| 2026-05-01 10:49 | 54.06535 | 15.68224 | 38405 ft | 451 kts | 335° |
| 2026-05-01 10:49 | 54.12031 | 15.62978 | 38410 ft | 451 kts | 335° |
| 2026-05-01 10:50 | 54.17500 | 15.57739 | 38404 ft | 451 kts | 335° |
| 2026-05-01 10:50 | 54.22965 | 15.52490 | 38407 ft | 451 kts | 335° |
| 2026-05-01 10:51 | 54.28407 | 15.47247 | 38410 ft | 450 kts | 335° |
| 2026-05-01 10:51 | 54.33878 | 15.41959 | 38411 ft | 450 kts | 335° |
| 2026-05-01 10:52 | 54.39305 | 15.36699 | 38409 ft | 450 kts | 335° |
| 2026-05-01 10:52 | 54.44763 | 15.31391 | 38403 ft | 450 kts | 335° |
| 2026-05-01 10:53 | 54.50194 | 15.26093 | 38400 ft | 450 kts | 335° |
| 2026-05-01 10:53 | 54.55637 | 15.20768 | 38403 ft | 450 kts | 335° |
| 2026-05-01 10:54 | 54.61078 | 15.15428 | 38399 ft | 450 kts | 335° |
| 2026-05-01 10:54 | 54.65595 | 15.10982 | 38398 ft | 450 kts | 335° |
| 2026-05-01 10:55 | 54.71047 | 15.05600 | 38398 ft | 450 kts | 335° |
| 2026-05-01 10:55 | 54.76495 | 15.00206 | 38398 ft | 450 kts | 335° |
| 2026-05-01 10:56 | 54.81898 | 14.94839 | 38387 ft | 450 kts | 335° |
| 2026-05-01 10:56 | 54.87354 | 14.89494 | 38381 ft | 450 kts | 335° |
| 2026-05-01 10:57 | 54.92833 | 14.84236 | 38375 ft | 449 kts | 335° |
| 2026-05-01 10:57 | 54.98309 | 14.78963 | 38372 ft | 450 kts | 335° |
| 2026-05-01 10:58 | 55.03777 | 14.73657 | 38373 ft | 450 kts | 335° |
| 2026-05-01 10:58 | 55.09248 | 14.68322 | 38372 ft | 450 kts | 335° |
| 2026-05-01 10:59 | 55.14677 | 14.63009 | 38368 ft | 450 kts | 335° |
| 2026-05-01 10:59 | 55.20153 | 14.57634 | 38375 ft | 451 kts | 335° |
| 2026-05-01 11:00 | 55.25619 | 14.52252 | 38378 ft | 451 kts | 335° |
| 2026-05-01 11:00 | 55.31093 | 14.46845 | 38378 ft | 452 kts | 335° |
| 2026-05-01 11:01 | 55.36569 | 14.41419 | 38368 ft | 452 kts | 335° |
| 2026-05-01 11:01 | 55.42059 | 14.35961 | 38368 ft | 452 kts | 335° |
| 2026-05-01 11:02 | 55.47537 | 14.30498 | 38369 ft | 452 kts | 335° |
| 2026-05-01 11:02 | 55.52977 | 14.25056 | 38366 ft | 452 kts | 334° |
| 2026-05-01 11:03 | 55.58446 | 14.19566 | 38363 ft | 453 kts | 334° |
| 2026-05-01 11:03 | 55.63928 | 14.14047 | 38360 ft | 453 kts | 334° |
| 2026-05-01 11:04 | 55.69411 | 14.08507 | 38359 ft | 453 kts | 334° |
| 2026-05-01 11:04 | 55.74891 | 14.02954 | 38365 ft | 453 kts | 334° |
| 2026-05-01 11:05 | 55.80363 | 13.97391 | 38336 ft | 453 kts | 334° |
| 2026-05-01 11:05 | 55.85847 | 13.91794 | 38340 ft | 453 kts | 334° |
| 2026-05-01 11:06 | 55.91294 | 13.86220 | 38335 ft | 454 kts | 334° |
| 2026-05-01 11:06 | 55.96785 | 13.80581 | 38353 ft | 454 kts | 333° |
| 2026-05-01 11:07 | 56.05024 | 13.72085 | 38359 ft | 455 kts | 333° |
| 2026-05-01 11:07 | 56.10515 | 13.66400 | 38384 ft | 456 kts | 333° |
| 2026-05-01 11:08 | 56.15969 | 13.60733 | 38391 ft | 456 kts | 333° |
| 2026-05-01 11:09 | 56.24221 | 13.52124 | 38390 ft | 457 kts | 333° |
| 2026-05-01 11:09 | 56.29719 | 13.46365 | 38389 ft | 457 kts | 332° |
| 2026-05-01 11:10 | 56.37948 | 13.37706 | 38388 ft | 458 kts | 332° |
| 2026-05-01 11:10 | 56.43469 | 13.31875 | 38392 ft | 459 kts | 332° |
| 2026-05-01 11:11 | 56.48990 | 13.26022 | 38393 ft | 459 kts | 332° |
| 2026-05-01 11:11 | 56.54503 | 13.20158 | 38391 ft | 460 kts | 332° |
| 2026-05-01 11:12 | 56.59996 | 13.14294 | 38398 ft | 460 kts | 332° |
| 2026-05-01 11:12 | 56.65525 | 13.08372 | 38396 ft | 461 kts | 331° |
| 2026-05-01 11:13 | 56.71064 | 13.02418 | 38400 ft | 462 kts | 331° |
| 2026-05-01 11:13 | 56.76561 | 12.96490 | 38401 ft | 462 kts | 331° |
| 2026-05-01 11:14 | 56.82104 | 12.90490 | 38400 ft | 463 kts | 331° |
| 2026-05-01 11:14 | 56.87642 | 12.84476 | 38396 ft | 463 kts | 330° |
| 2026-05-01 11:15 | 56.93155 | 12.78469 | 38392 ft | 463 kts | 330° |
| 2026-05-01 11:15 | 56.98699 | 12.72411 | 38385 ft | 464 kts | 330° |
| 2026-05-01 11:16 | 57.04240 | 12.66329 | 38378 ft | 464 kts | 330° |
| 2026-05-01 11:16 | 57.09778 | 12.60230 | 38375 ft | 464 kts | 330° |
| 2026-05-01 11:17 | 57.15326 | 12.54100 | 38378 ft | 464 kts | 330° |
| 2026-05-01 11:17 | 57.20836 | 12.47990 | 38374 ft | 464 kts | 330° |
| 2026-05-01 11:18 | 57.26375 | 12.41824 | 38371 ft | 464 kts | 329° |
| 2026-05-01 11:18 | 57.31911 | 12.35640 | 38371 ft | 464 kts | 329° |
| 2026-05-01 11:19 | 57.37400 | 12.29485 | 38363 ft | 464 kts | 329° |
| 2026-05-01 11:19 | 57.42926 | 12.23269 | 38357 ft | 464 kts | 329° |
| 2026-05-01 11:20 | 57.48442 | 12.17045 | 38353 ft | 464 kts | 329° |
| 2026-05-01 11:20 | 57.53956 | 12.10800 | 38353 ft | 463 kts | 329° |
| 2026-05-01 11:21 | 57.59464 | 12.04536 | 38349 ft | 463 kts | 329° |
| 2026-05-01 11:21 | 57.64967 | 11.98254 | 38376 ft | 463 kts | 328° |
| 2026-05-01 11:22 | 57.70449 | 11.91976 | 38376 ft | 464 kts | 328° |
| 2026-05-01 11:22 | 57.75951 | 11.85653 | 38372 ft | 464 kts | 328° |
| 2026-05-01 11:23 | 57.81456 | 11.79305 | 38372 ft | 464 kts | 328° |
| 2026-05-01 11:23 | 57.86923 | 11.72975 | 38374 ft | 464 kts | 328° |
| 2026-05-01 11:24 | 57.92414 | 11.66595 | 38367 ft | 464 kts | 328° |
| 2026-05-01 11:25 | 58.00618 | 11.57018 | 38360 ft | 464 kts | 328° |
| 2026-05-01 11:25 | 58.08834 | 11.47376 | 38344 ft | 464 kts | 327° |
| 2026-05-01 11:26 | 58.17051 | 11.37680 | 38338 ft | 464 kts | 327° |
| 2026-05-01 11:27 | 58.22533 | 11.31181 | 38335 ft | 464 kts | 327° |
| 2026-05-01 11:27 | 58.27999 | 11.24678 | 38328 ft | 464 kts | 327° |
| 2026-05-01 11:28 | 58.33435 | 11.18185 | 38322 ft | 463 kts | 327° |
| 2026-05-01 11:28 | 58.38897 | 11.11638 | 38320 ft | 463 kts | 327° |
| 2026-05-01 11:29 | 58.47083 | 11.01779 | 38309 ft | 463 kts | 326° |
| 2026-05-01 11:30 | 58.54343 | 10.92991 | 38303 ft | 464 kts | 326° |
| 2026-05-01 11:30 | 58.60683 | 10.85298 | 38300 ft | 463 kts | 324° |
| 2026-05-01 11:31 | 58.66128 | 10.78649 | 38290 ft | 463 kts | 324° |
| 2026-05-01 11:31 | 58.71578 | 10.71955 | 38284 ft | 463 kts | 324° |
| 2026-05-01 11:32 | 58.77005 | 10.65272 | 38277 ft | 463 kts | 323° |
| 2026-05-01 11:32 | 58.82401 | 10.58598 | 38282 ft | 463 kts | 323° |
| 2026-05-01 11:33 | 58.87776 | 10.51730 | 38258 ft | 463 kts | 322° |
| 2026-05-01 11:33 | 58.93130 | 10.44786 | 38262 ft | 462 kts | 322° |
| 2026-05-01 11:34 | 58.98483 | 10.37842 | 38261 ft | 462 kts | 322° |
| 2026-05-01 11:34 | 59.03839 | 10.30892 | 38264 ft | 462 kts | 322° |
| 2026-05-01 11:35 | 59.09165 | 10.23964 | 38265 ft | 462 kts | 322° |
| 2026-05-01 11:35 | 59.14518 | 10.16974 | 38271 ft | 463 kts | 322° |
| 2026-05-01 11:36 | 59.19828 | 10.10012 | 38267 ft | 463 kts | 322° |
| 2026-05-01 11:36 | 59.25168 | 10.02980 | 38267 ft | 463 kts | 321° |
| 2026-05-01 11:37 | 59.30511 | 9.95919 | 38258 ft | 463 kts | 321° |
| 2026-05-01 11:37 | 59.35833 | 9.88859 | 38251 ft | 463 kts | 321° |
| 2026-05-01 11:38 | 59.41174 | 9.81748 | 38243 ft | 463 kts | 321° |
| 2026-05-01 11:38 | 59.46509 | 9.74616 | 38238 ft | 463 kts | 321° |
| 2026-05-01 11:39 | 59.51844 | 9.67458 | 38227 ft | 464 kts | 321° |
| 2026-05-01 11:39 | 59.57135 | 9.60329 | 38223 ft | 463 kts | 321° |
| 2026-05-01 11:40 | 59.62461 | 9.53126 | 38217 ft | 464 kts | 321° |
| 2026-05-01 11:40 | 59.67784 | 9.45898 | 38218 ft | 464 kts | 321° |
| 2026-05-01 11:41 | 59.73107 | 9.38641 | 38213 ft | 464 kts | 321° |
| 2026-05-01 11:41 | 59.78386 | 9.31416 | 38217 ft | 464 kts | 320° |
| 2026-05-01 11:42 | 59.83693 | 9.24126 | 38208 ft | 463 kts | 320° |
| 2026-05-01 11:42 | 59.88107 | 9.18040 | 38213 ft | 463 kts | 320° |
| 2026-05-01 11:43 | 59.93403 | 9.10711 | 38217 ft | 463 kts | 320° |
| 2026-05-01 11:43 | 59.98703 | 9.03348 | 38222 ft | 464 kts | 320° |
| 2026-05-01 11:44 | 60.06610 | 8.92308 | 38219 ft | 463 kts | 320° |
| 2026-05-01 11:44 | 60.11892 | 8.84896 | 38224 ft | 463 kts | 320° |
| 2026-05-01 11:45 | 60.17182 | 8.77443 | 38236 ft | 463 kts | 320° |
| 2026-05-01 11:45 | 60.22426 | 8.70025 | 38238 ft | 463 kts | 320° |
| 2026-05-01 11:46 | 60.27691 | 8.62547 | 38239 ft | 463 kts | 319° |
| 2026-05-01 11:46 | 60.32960 | 8.55035 | 38248 ft | 463 kts | 319° |
| 2026-05-01 11:47 | 60.38184 | 8.47556 | 38247 ft | 463 kts | 319° |
| 2026-05-01 11:47 | 60.43444 | 8.39995 | 38251 ft | 462 kts | 319° |
| 2026-05-01 11:48 | 60.48692 | 8.32422 | 38252 ft | 462 kts | 319° |
| 2026-05-01 11:48 | 60.53929 | 8.24832 | 38246 ft | 462 kts | 319° |
| 2026-05-01 11:49 | 60.59150 | 8.17235 | 38258 ft | 463 kts | 319° |
| 2026-05-01 11:49 | 60.64385 | 8.09585 | 38260 ft | 463 kts | 319° |
| 2026-05-01 11:50 | 60.69622 | 8.01903 | 38249 ft | 463 kts | 319° |
| 2026-05-01 11:50 | 60.74827 | 7.94237 | 38243 ft | 464 kts | 319° |
| 2026-05-01 11:51 | 60.80058 | 7.86501 | 38242 ft | 464 kts | 319° |
| 2026-05-01 11:51 | 60.85311 | 7.78699 | 38233 ft | 465 kts | 319° |
| 2026-05-01 11:52 | 60.90604 | 7.71128 | 38224 ft | 468 kts | 322° |
| 2026-05-01 11:52 | 60.96223 | 7.64249 | 38223 ft | 470 kts | 324° |
| 2026-05-01 11:53 | 61.01856 | 7.57514 | 38211 ft | 470 kts | 324° |
| 2026-05-01 11:53 | 61.07475 | 7.50590 | 38210 ft | 470 kts | 323° |
| 2026-05-01 11:54 | 61.13065 | 7.43552 | 38215 ft | 471 kts | 323° |
| 2026-05-01 11:54 | 61.18661 | 7.36452 | 38207 ft | 470 kts | 323° |
| 2026-05-01 11:55 | 61.24246 | 7.29336 | 38217 ft | 472 kts | 323° |
| 2026-05-01 11:55 | 61.29813 | 7.22232 | 38201 ft | 472 kts | 323° |
| 2026-05-01 11:56 | 61.35400 | 7.15067 | 38201 ft | 471 kts | 323° |
| 2026-05-01 11:56 | 61.40982 | 7.07877 | 38188 ft | 471 kts | 323° |
| 2026-05-01 11:57 | 61.46557 | 7.00665 | 38188 ft | 471 kts | 323° |
| 2026-05-01 11:57 | 61.52136 | 6.93417 | 38185 ft | 471 kts | 323° |
| 2026-05-01 11:58 | 61.57709 | 6.86147 | 38169 ft | 472 kts | 322° |
| 2026-05-01 11:59 | 61.66035 | 6.75224 | 38131 ft | 472 kts | 322° |
| 2026-05-01 11:59 | 61.71618 | 6.67870 | 38124 ft | 472 kts | 322° |
| 2026-05-01 12:00 | 61.79971 | 6.56785 | 38115 ft | 473 kts | 322° |
| 2026-05-01 12:01 | 61.88287 | 6.45687 | 38112 ft | 473 kts | 322° |
| 2026-05-01 12:01 | 61.93847 | 6.38227 | 38149 ft | 473 kts | 322° |
| 2026-05-01 12:02 | 61.99404 | 6.30735 | 38145 ft | 473 kts | 322° |
| 2026-05-01 12:02 | 62.04962 | 6.23237 | 38127 ft | 473 kts | 321° |
| 2026-05-01 12:03 | 62.10473 | 6.15736 | 38114 ft | 472 kts | 321° |
| 2026-05-01 12:03 | 62.16008 | 6.08163 | 38110 ft | 472 kts | 321° |
| 2026-05-01 12:04 | 62.21554 | 6.00553 | 38111 ft | 472 kts | 321° |
| 2026-05-01 12:04 | 62.27077 | 5.92942 | 38104 ft | 472 kts | 321° |
| 2026-05-01 12:05 | 62.32575 | 5.85336 | 38106 ft | 472 kts | 321° |
| 2026-05-01 12:05 | 62.40855 | 5.73813 | 38091 ft | 471 kts | 320° |
| 2026-05-01 12:06 | 62.46345 | 5.66131 | 38092 ft | 471 kts | 320° |
| 2026-05-01 12:06 | 62.51837 | 5.58413 | 38089 ft | 471 kts | 320° |
| 2026-05-01 12:07 | 62.57330 | 5.50658 | 38096 ft | 471 kts | 320° |
| 2026-05-01 12:07 | 62.62825 | 5.42865 | 38096 ft | 471 kts | 320° |
| 2026-05-01 12:08 | 62.68270 | 5.35110 | 38094 ft | 470 kts | 320° |
| 2026-05-01 12:08 | 62.73742 | 5.27279 | 38083 ft | 470 kts | 320° |
| 2026-05-01 12:09 | 62.79190 | 5.19449 | 38090 ft | 470 kts | 320° |
| 2026-05-01 12:09 | 62.84661 | 5.11549 | 38090 ft | 470 kts | 320° |
| 2026-05-01 12:10 | 62.92843 | 4.99668 | 38083 ft | 470 kts | 320° |
| 2026-05-01 12:11 | 63.01007 | 4.87734 | 38077 ft | 470 kts | 320° |
| 2026-05-01 12:11 | 63.06420 | 4.79776 | 38075 ft | 470 kts | 320° |
| 2026-05-01 12:12 | 63.11850 | 4.71756 | 38070 ft | 470 kts | 319° |
| 2026-05-01 12:12 | 63.17283 | 4.63694 | 38071 ft | 470 kts | 319° |
| 2026-05-01 12:13 | 63.22720 | 4.55590 | 38059 ft | 471 kts | 319° |
| 2026-05-01 12:13 | 63.28162 | 4.47441 | 38048 ft | 471 kts | 319° |
| 2026-05-01 12:14 | 63.33593 | 4.39256 | 38042 ft | 470 kts | 318° |
| 2026-05-01 12:14 | 63.38410 | 4.29765 | 38042 ft | 461 kts | 308° |
| 2026-05-01 12:15 | 63.42786 | 4.19414 | 38034 ft | 460 kts | 306° |
| 2026-05-01 12:15 | 63.47102 | 4.08826 | 38031 ft | 460 kts | 306° |
| 2026-05-01 12:16 | 63.51385 | 3.98269 | 38032 ft | 460 kts | 306° |
| 2026-05-01 12:16 | 63.55703 | 3.87635 | 38024 ft | 460 kts | 306° |
| 2026-05-01 12:17 | 63.59994 | 3.77041 | 38015 ft | 460 kts | 306° |
| 2026-05-01 12:17 | 63.64295 | 3.66377 | 38016 ft | 459 kts | 306° |
| 2026-05-01 12:18 | 63.68569 | 3.55725 | 38010 ft | 459 kts | 306° |
| 2026-05-01 12:18 | 63.72854 | 3.44991 | 38006 ft | 459 kts | 306° |
| 2026-05-01 12:19 | 63.77089 | 3.34332 | 38004 ft | 458 kts | 306° |
| 2026-05-01 12:19 | 63.81345 | 3.23564 | 37997 ft | 458 kts | 305° |
| 2026-05-01 12:20 | 63.85596 | 3.12761 | 37996 ft | 458 kts | 305° |
| 2026-05-01 12:20 | 63.89819 | 3.01972 | 37991 ft | 458 kts | 305° |
| 2026-05-01 12:21 | 63.94013 | 2.91202 | 37990 ft | 458 kts | 305° |
| 2026-05-01 12:21 | 63.98220 | 2.80347 | 37986 ft | 458 kts | 305° |
| 2026-05-01 12:22 | 64.02439 | 2.69407 | 37981 ft | 458 kts | 305° |
| 2026-05-01 12:22 | 64.06625 | 2.58500 | 37977 ft | 457 kts | 304° |
| 2026-05-01 12:23 | 64.10806 | 2.47555 | 37976 ft | 457 kts | 304° |
| 2026-05-01 12:23 | 64.14984 | 2.36562 | 37978 ft | 457 kts | 304° |
| 2026-05-01 12:24 | 64.19140 | 2.25571 | 37957 ft | 457 kts | 304° |
| 2026-05-01 12:24 | 64.23315 | 2.14474 | 37971 ft | 457 kts | 304° |
| 2026-05-01 12:25 | 64.29541 | 1.97823 | 37970 ft | 457 kts | 304° |
| 2026-05-01 12:26 | 64.33675 | 1.86697 | 37959 ft | 458 kts | 304° |
| 2026-05-01 12:26 | 64.39857 | 1.69952 | 37956 ft | 458 kts | 304° |
| 2026-05-01 12:27 | 64.46044 | 1.53066 | 37952 ft | 458 kts | 303° |
| 2026-05-01 12:28 | 64.52216 | 1.36090 | 37947 ft | 458 kts | 303° |
| 2026-05-01 12:29 | 64.58349 | 1.19095 | 37947 ft | 459 kts | 303° |
| 2026-05-01 12:29 | 64.64472 | 1.01992 | 37941 ft | 459 kts | 303° |
| 2026-05-01 12:30 | 64.70590 | 0.84772 | 37934 ft | 459 kts | 303° |
| 2026-05-01 12:31 | 64.74662 | 0.73236 | 37929 ft | 459 kts | 303° |
| 2026-05-01 12:31 | 64.78733 | 0.61641 | 37928 ft | 460 kts | 303° |
| 2026-05-01 12:32 | 64.82778 | 0.50061 | 37923 ft | 460 kts | 303° |
| 2026-05-01 12:32 | 64.88856 | 0.32544 | 37916 ft | 461 kts | 302° |
| 2026-05-01 12:33 | 64.92880 | 0.20872 | 37912 ft | 461 kts | 302° |
| 2026-05-01 12:33 | 64.96928 | 0.09066 | 37911 ft | 462 kts | 302° |
| 2026-05-01 12:34 | 65.00282 | -0.00761 | 37907 ft | 462 kts | 302° |
| 2026-05-01 12:34 | 65.04470 | -0.12396 | 37901 ft | 465 kts | 305° |
| 2026-05-01 12:35 | 65.08781 | -0.23789 | 37894 ft | 466 kts | 305° |
| 2026-05-01 12:35 | 65.13090 | -0.35298 | 37885 ft | 466 kts | 305° |
| 2026-05-01 12:36 | 65.17336 | -0.46830 | 37883 ft | 466 kts | 304° |
| 2026-05-01 12:36 | 65.21592 | -0.58508 | 37881 ft | 466 kts | 304° |
| 2026-05-01 12:37 | 65.25849 | -0.70256 | 37863 ft | 467 kts | 304° |
| 2026-05-01 12:37 | 65.30072 | -0.81967 | 37865 ft | 467 kts | 304° |
| 2026-05-01 12:38 | 65.34293 | -0.93732 | 37861 ft | 467 kts | 304° |
| 2026-05-01 12:38 | 65.38527 | -1.05593 | 37855 ft | 467 kts | 304° |
| 2026-05-01 12:39 | 65.42746 | -1.17481 | 37851 ft | 467 kts | 304° |
| 2026-05-01 12:39 | 65.46943 | -1.29369 | 37845 ft | 468 kts | 304° |
| 2026-05-01 12:40 | 65.51153 | -1.41358 | 37838 ft | 468 kts | 304° |
| 2026-05-01 12:40 | 65.55321 | -1.53295 | 37832 ft | 468 kts | 304° |
| 2026-05-01 12:41 | 65.59515 | -1.65375 | 37825 ft | 468 kts | 304° |
| 2026-05-01 12:41 | 65.63663 | -1.77388 | 37820 ft | 468 kts | 303° |
| 2026-05-01 12:42 | 65.67836 | -1.89536 | 37810 ft | 468 kts | 303° |
| 2026-05-01 12:42 | 65.71967 | -2.01628 | 37806 ft | 467 kts | 303° |
| 2026-05-01 12:43 | 65.76113 | -2.13830 | 37784 ft | 467 kts | 303° |
| 2026-05-01 12:43 | 65.80243 | -2.26056 | 37791 ft | 467 kts | 303° |
| 2026-05-01 12:44 | 65.84379 | -2.38368 | 37788 ft | 467 kts | 303° |
| 2026-05-01 12:45 | 65.92582 | -2.62993 | 37780 ft | 468 kts | 303° |
| 2026-05-01 12:45 | 65.96653 | -2.75319 | 37769 ft | 468 kts | 303° |
| 2026-05-01 12:46 | 66.00745 | -2.87775 | 37766 ft | 468 kts | 303° |
| 2026-05-01 12:46 | 66.04837 | -3.00306 | 37761 ft | 468 kts | 302° |
| 2026-05-01 12:47 | 66.08895 | -3.12799 | 37755 ft | 469 kts | 302° |
| 2026-05-01 12:47 | 66.12949 | -3.25354 | 37753 ft | 469 kts | 302° |
| 2026-05-01 12:48 | 66.17010 | -3.38002 | 37753 ft | 469 kts | 302° |
| 2026-05-01 12:48 | 66.21063 | -3.50700 | 37752 ft | 469 kts | 302° |
| 2026-05-01 12:49 | 66.25082 | -3.63361 | 37751 ft | 469 kts | 302° |
| 2026-05-01 12:49 | 66.29114 | -3.76139 | 37753 ft | 470 kts | 302° |
| 2026-05-01 12:50 | 66.33139 | -3.88966 | 37752 ft | 470 kts | 302° |
| 2026-05-01 12:50 | 66.37135 | -4.01779 | 37754 ft | 470 kts | 302° |
| 2026-05-01 12:51 | 66.41136 | -4.14681 | 37754 ft | 470 kts | 302° |
| 2026-05-01 12:52 | 66.47108 | -4.34081 | 37755 ft | 470 kts | 302° |
| 2026-05-01 12:52 | 66.53080 | -4.53652 | 37758 ft | 471 kts | 302° |
| 2026-05-01 12:53 | 66.59030 | -4.73328 | 37762 ft | 471 kts | 301° |
| 2026-05-01 12:54 | 66.62968 | -4.86447 | 37759 ft | 471 kts | 301° |
| 2026-05-01 12:54 | 66.68865 | -5.06241 | 37759 ft | 472 kts | 301° |
| 2026-05-01 12:55 | 66.74761 | -5.26211 | 37761 ft | 472 kts | 301° |
| 2026-05-01 12:56 | 66.78669 | -5.39548 | 37766 ft | 472 kts | 301° |
| 2026-05-01 12:56 | 66.82569 | -5.52936 | 37757 ft | 472 kts | 301° |
| 2026-05-01 12:57 | 66.86452 | -5.66349 | 37755 ft | 472 kts | 301° |
| 2026-05-01 12:57 | 66.92267 | -5.86591 | 37751 ft | 473 kts | 301° |
| 2026-05-01 12:58 | 66.96134 | -6.00154 | 37761 ft | 473 kts | 301° |
| 2026-05-01 12:59 | 67.01927 | -6.20633 | 37762 ft | 473 kts | 301° |
| 2026-05-01 12:59 | 67.07675 | -6.41143 | 37764 ft | 474 kts | 300° |
| 2026-05-01 13:00 | 67.13429 | -6.61869 | 37765 ft | 474 kts | 300° |
| 2026-05-01 13:01 | 67.19145 | -6.82649 | 37764 ft | 475 kts | 300° |
| 2026-05-01 13:02 | 67.24829 | -7.03513 | 37760 ft | 475 kts | 300° |
| 2026-05-01 13:07 | 67.65926 | -8.60557 | 37759 ft | 479 kts | 300° |
| 2026-05-01 13:08 | 67.69603 | -8.75174 | 37757 ft | 479 kts | 300° |
| 2026-05-01 13:08 | 67.73270 | -8.89848 | 37757 ft | 478 kts | 300° |
| 2026-05-01 13:09 | 67.76896 | -9.04454 | 37757 ft | 478 kts | 299° |
| 2026-05-01 13:09 | 67.80530 | -9.19192 | 37756 ft | 478 kts | 299° |
| 2026-05-01 13:10 | 67.84144 | -9.33953 | 37745 ft | 478 kts | 299° |
| 2026-05-01 13:10 | 67.87747 | -9.48764 | 37751 ft | 477 kts | 299° |
| 2026-05-01 13:11 | 67.91335 | -9.63616 | 37756 ft | 477 kts | 299° |
| 2026-05-01 13:11 | 67.94912 | -9.78525 | 37748 ft | 477 kts | 299° |
| 2026-05-01 13:12 | 67.98446 | -9.93354 | 37744 ft | 478 kts | 299° |
| 2026-05-01 13:12 | 68.02022 | -10.08319 | 37747 ft | 478 kts | 300° |
| 2026-05-01 13:13 | 68.05719 | -10.23133 | 37748 ft | 479 kts | 300° |
| 2026-05-01 13:13 | 68.09428 | -10.37955 | 37753 ft | 479 kts | 300° |
| 2026-05-01 13:14 | 68.13110 | -10.52878 | 37750 ft | 479 kts | 300° |
| 2026-05-01 13:14 | 68.16740 | -10.67765 | 37763 ft | 480 kts | 300° |
| 2026-05-01 13:15 | 68.20382 | -10.82825 | 37766 ft | 480 kts | 300° |
| 2026-05-01 13:15 | 68.24012 | -10.97932 | 37776 ft | 480 kts | 300° |
| 2026-05-01 13:16 | 68.27627 | -11.13080 | 37788 ft | 480 kts | 300° |
| 2026-05-01 13:16 | 68.31231 | -11.28285 | 37798 ft | 480 kts | 299° |
| 2026-05-01 13:17 | 68.38358 | -11.58673 | 37820 ft | 479 kts | 299° |
| 2026-05-01 13:18 | 68.43680 | -11.81648 | 37830 ft | 478 kts | 299° |
| 2026-05-01 13:18 | 68.47210 | -11.97026 | 37837 ft | 478 kts | 299° |
| 2026-05-01 13:19 | 68.50702 | -12.12347 | 37845 ft | 478 kts | 298° |
| 2026-05-01 13:20 | 68.55945 | -12.35555 | 37845 ft | 479 kts | 298° |
| 2026-05-01 13:20 | 68.59428 | -12.51109 | 37876 ft | 479 kts | 298° |
| 2026-05-01 13:21 | 68.64604 | -12.74427 | 37873 ft | 479 kts | 298° |
| 2026-05-01 13:21 | 68.68050 | -12.90095 | 37887 ft | 479 kts | 298° |
| 2026-05-01 13:22 | 68.71475 | -13.05785 | 37893 ft | 479 kts | 298° |
| 2026-05-01 13:22 | 68.74890 | -13.21544 | 37897 ft | 479 kts | 298° |
| 2026-05-01 13:23 | 68.78290 | -13.37347 | 37905 ft | 479 kts | 298° |
| 2026-05-01 13:23 | 68.81672 | -13.53184 | 37911 ft | 478 kts | 298° |
| 2026-05-01 13:24 | 68.85026 | -13.69009 | 37918 ft | 478 kts | 298° |
| 2026-05-01 13:25 | 68.89482 | -13.90215 | 37928 ft | 478 kts | 297° |
| 2026-05-01 13:25 | 68.92818 | -14.06228 | 37930 ft | 478 kts | 297° |
| 2026-05-01 13:26 | 68.96137 | -14.22283 | 37936 ft | 478 kts | 297° |
| 2026-05-01 13:26 | 68.99441 | -14.38384 | 37943 ft | 478 kts | 297° |
| 2026-05-01 13:27 | 69.02705 | -14.54414 | 37937 ft | 478 kts | 297° |
| 2026-05-01 13:27 | 69.07613 | -14.78746 | 37950 ft | 478 kts | 297° |
| 2026-05-01 13:28 | 69.12469 | -15.03100 | 37951 ft | 478 kts | 297° |
| 2026-05-01 13:29 | 69.18886 | -15.35722 | 37964 ft | 478 kts | 297° |
| 2026-05-01 13:31 | 69.28396 | -15.85021 | 37965 ft | 477 kts | 296° |
| 2026-05-01 13:32 | 69.36222 | -16.26479 | 37972 ft | 477 kts | 296° |
| 2026-05-01 13:33 | 69.43924 | -16.68103 | 37980 ft | 477 kts | 296° |
| 2026-05-01 13:34 | 69.50014 | -17.01620 | 37984 ft | 476 kts | 295° |
| 2026-05-01 13:35 | 69.54527 | -17.26814 | 37989 ft | 476 kts | 295° |
| 2026-05-01 13:36 | 69.59017 | -17.52190 | 37993 ft | 476 kts | 295° |
| 2026-05-01 13:36 | 69.63469 | -17.77669 | 37995 ft | 476 kts | 295° |
| 2026-05-01 13:37 | 69.66413 | -17.94693 | 37999 ft | 476 kts | 295° |
| 2026-05-01 13:37 | 69.69327 | -18.11687 | 38004 ft | 476 kts | 295° |
| 2026-05-01 13:38 | 69.73693 | -18.37418 | 38004 ft | 476 kts | 294° |
| 2026-05-01 13:39 | 69.76583 | -18.54632 | 38007 ft | 476 kts | 294° |
| 2026-05-01 13:39 | 69.79457 | -18.71899 | 38012 ft | 476 kts | 294° |
| 2026-05-01 13:40 | 69.82293 | -18.89083 | 38014 ft | 476 kts | 294° |
| 2026-05-01 13:40 | 69.85134 | -19.06443 | 38012 ft | 476 kts | 294° |
| 2026-05-01 13:41 | 69.87959 | -19.23862 | 38012 ft | 476 kts | 294° |
| 2026-05-01 13:41 | 69.90759 | -19.41276 | 38020 ft | 475 kts | 294° |
| 2026-05-01 13:42 | 69.93520 | -19.58600 | 38018 ft | 474 kts | 294° |
| 2026-05-01 13:42 | 69.96279 | -19.76061 | 38018 ft | 474 kts | 294° |
| 2026-05-01 13:43 | 69.99027 | -19.93567 | 38017 ft | 473 kts | 294° |
| 2026-05-01 13:43 | 70.02401 | -20.10133 | 38019 ft | 474 kts | 302° |
| 2026-05-01 13:44 | 70.06069 | -20.26057 | 38019 ft | 474 kts | 303° |
| 2026-05-01 13:44 | 70.09798 | -20.42000 | 38018 ft | 473 kts | 303° |
| 2026-05-01 13:45 | 70.13511 | -20.58022 | 38018 ft | 473 kts | 302° |
| 2026-05-01 13:45 | 70.17195 | -20.74111 | 38015 ft | 473 kts | 302° |
| 2026-05-01 13:46 | 70.20831 | -20.90144 | 38016 ft | 473 kts | 302° |
| 2026-05-01 13:46 | 70.24476 | -21.06336 | 38017 ft | 473 kts | 302° |
| 2026-05-01 13:47 | 70.28109 | -21.22598 | 38013 ft | 473 kts | 301° |
| 2026-05-01 13:47 | 70.31721 | -21.38886 | 38014 ft | 473 kts | 301° |
| 2026-05-01 13:48 | 70.35321 | -21.55240 | 38013 ft | 473 kts | 301° |
| 2026-05-01 13:48 | 70.38902 | -21.71640 | 38013 ft | 473 kts | 301° |
| 2026-05-01 13:49 | 70.42457 | -21.88040 | 38013 ft | 473 kts | 301° |
| 2026-05-01 13:49 | 70.46018 | -22.04594 | 38012 ft | 473 kts | 301° |
| 2026-05-01 13:50 | 70.49560 | -22.21192 | 38017 ft | 473 kts | 301° |
| 2026-05-01 13:50 | 70.53090 | -22.37861 | 38019 ft | 474 kts | 301° |
| 2026-05-01 13:51 | 70.56615 | -22.54640 | 38020 ft | 475 kts | 301° |
| 2026-05-01 13:51 | 70.60103 | -22.71363 | 38019 ft | 475 kts | 301° |
| 2026-05-01 13:52 | 70.63598 | -22.88259 | 38020 ft | 475 kts | 300° |
| 2026-05-01 13:52 | 70.67072 | -23.05192 | 38020 ft | 475 kts | 300° |
| 2026-05-01 13:53 | 70.70533 | -23.22193 | 38025 ft | 474 kts | 300° |
| 2026-05-01 13:53 | 70.75670 | -23.47681 | 38026 ft | 474 kts | 300° |
| 2026-05-01 13:54 | 70.79086 | -23.64797 | 38026 ft | 473 kts | 300° |
| 2026-05-01 13:54 | 70.82484 | -23.81962 | 38025 ft | 473 kts | 300° |
| 2026-05-01 13:55 | 70.85855 | -23.99131 | 38026 ft | 472 kts | 300° |
| 2026-05-01 13:55 | 70.89205 | -24.16334 | 38009 ft | 471 kts | 299° |
| 2026-05-01 13:56 | 70.92530 | -24.33549 | 38011 ft | 470 kts | 299° |
| 2026-05-01 13:56 | 70.95814 | -24.50692 | 38010 ft | 469 kts | 299° |
| 2026-05-01 13:57 | 70.98567 | -24.65167 | 38006 ft | 469 kts | 299° |
| 2026-05-01 13:57 | 71.02373 | -24.85349 | 38003 ft | 469 kts | 298° |
| 2026-05-01 13:58 | 71.05611 | -25.02671 | 38010 ft | 469 kts | 298° |
| 2026-05-01 13:58 | 71.08852 | -25.20160 | 38004 ft | 469 kts | 298° |
| 2026-05-01 13:59 | 71.12061 | -25.37613 | 38010 ft | 470 kts | 298° |
| 2026-05-01 13:59 | 71.15272 | -25.55234 | 37998 ft | 471 kts | 298° |
| 2026-05-01 14:00 | 71.18476 | -25.72961 | 38010 ft | 473 kts | 298° |
| 2026-05-01 14:00 | 71.21685 | -25.90870 | 38015 ft | 475 kts | 297° |
| 2026-05-01 14:01 | 71.24873 | -26.08807 | 38022 ft | 476 kts | 297° |
| 2026-05-01 14:01 | 71.28069 | -26.26952 | 38031 ft | 478 kts | 297° |
| 2026-05-01 14:02 | 71.31235 | -26.45078 | 38039 ft | 478 kts | 297° |
| 2026-05-01 14:02 | 71.34396 | -26.63344 | 38052 ft | 480 kts | 297° |
| 2026-05-01 14:03 | 71.37562 | -26.81804 | 38060 ft | 481 kts | 297° |
| 2026-05-01 14:03 | 71.40696 | -27.00234 | 38075 ft | 481 kts | 297° |
| 2026-05-01 14:04 | 71.43817 | -27.18757 | 38060 ft | 482 kts | 297° |
| 2026-05-01 14:04 | 71.46415 | -27.34306 | 38056 ft | 482 kts | 297° |
| 2026-05-01 14:05 | 71.50031 | -27.56142 | 38057 ft | 482 kts | 297° |
| 2026-05-01 14:05 | 71.53096 | -27.74841 | 38056 ft | 481 kts | 297° |
| 2026-05-01 14:06 | 71.56152 | -27.93652 | 38056 ft | 479 kts | 296° |
| 2026-05-01 14:06 | 71.59157 | -28.12326 | 38059 ft | 476 kts | 296° |
| 2026-05-01 14:07 | 71.62118 | -28.30897 | 38066 ft | 473 kts | 296° |
| 2026-05-01 14:08 | 71.66506 | -28.58737 | 38075 ft | 468 kts | 296° |
| 2026-05-01 14:08 | 71.69402 | -28.77320 | 38084 ft | 465 kts | 295° |
| 2026-05-01 14:09 | 71.72240 | -28.95707 | 38090 ft | 462 kts | 295° |
| 2026-05-01 14:09 | 71.75043 | -29.14034 | 38096 ft | 461 kts | 295° |
| 2026-05-01 14:10 | 71.77843 | -29.32510 | 38110 ft | 462 kts | 295° |
| 2026-05-01 14:10 | 71.80617 | -29.50985 | 38103 ft | 463 kts | 294° |
| 2026-05-01 14:11 | 71.83386 | -29.69602 | 38103 ft | 465 kts | 294° |
| 2026-05-01 14:11 | 71.87542 | -29.97877 | 38105 ft | 466 kts | 294° |
| 2026-05-01 14:12 | 71.90266 | -30.16625 | 38111 ft | 465 kts | 294° |
| 2026-05-01 14:12 | 71.92999 | -30.35618 | 38103 ft | 465 kts | 294° |
| 2026-05-01 14:13 | 71.95238 | -30.51331 | 38097 ft | 466 kts | 293° |
| 2026-05-01 14:13 | 71.98387 | -30.73651 | 38109 ft | 468 kts | 293° |
| 2026-05-01 14:14 | 72.01063 | -30.92805 | 38118 ft | 468 kts | 293° |
| 2026-05-01 14:14 | 72.03725 | -31.12047 | 38123 ft | 469 kts | 293° |
| 2026-05-01 14:15 | 72.06367 | -31.31330 | 38129 ft | 470 kts | 293° |
| 2026-05-01 14:15 | 72.08993 | -31.50703 | 38128 ft | 471 kts | 293° |
| 2026-05-01 14:16 | 72.11182 | -31.66996 | 38132 ft | 471 kts | 293° |
| 2026-05-01 14:16 | 72.13796 | -31.86645 | 38127 ft | 472 kts | 292° |
| 2026-05-01 14:17 | 72.16364 | -32.06146 | 38120 ft | 471 kts | 292° |
| 2026-05-01 14:17 | 72.18928 | -32.25818 | 38115 ft | 471 kts | 292° |
| 2026-05-01 14:18 | 72.21478 | -32.45595 | 38109 ft | 471 kts | 292° |
| 2026-05-01 14:18 | 72.23989 | -32.65280 | 38112 ft | 470 kts | 292° |
| 2026-05-01 14:19 | 72.26493 | -32.85115 | 38109 ft | 470 kts | 292° |
| 2026-05-01 14:19 | 72.28960 | -33.04866 | 38103 ft | 469 kts | 291° |
| 2026-05-01 14:20 | 72.32632 | -33.34669 | 38098 ft | 469 kts | 291° |
| 2026-05-01 14:21 | 72.35065 | -33.54688 | 38098 ft | 469 kts | 291° |
| 2026-05-01 14:21 | 72.37463 | -33.74631 | 38097 ft | 469 kts | 291° |
| 2026-05-01 14:22 | 72.41032 | -34.04733 | 38096 ft | 469 kts | 290° |
| 2026-05-01 14:22 | 72.43384 | -34.24843 | 38091 ft | 469 kts | 290° |
| 2026-05-01 14:23 | 72.45709 | -34.44955 | 38089 ft | 469 kts | 290° |
| 2026-05-01 14:23 | 72.48028 | -34.65241 | 38088 ft | 469 kts | 290° |
| 2026-05-01 14:24 | 72.50308 | -34.85416 | 38087 ft | 468 kts | 290° |
| 2026-05-01 14:24 | 72.52582 | -35.05773 | 38080 ft | 468 kts | 289° |
| 2026-05-01 14:25 | 72.54819 | -35.26027 | 38081 ft | 468 kts | 289° |
| 2026-05-01 14:25 | 72.57049 | -35.46461 | 38077 ft | 468 kts | 289° |
| 2026-05-01 14:26 | 72.60342 | -35.77093 | 38076 ft | 468 kts | 289° |
| 2026-05-01 14:27 | 72.62505 | -35.97508 | 38073 ft | 467 kts | 289° |
| 2026-05-01 14:27 | 72.64662 | -36.18116 | 38074 ft | 467 kts | 288° |
| 2026-05-01 14:28 | 72.67832 | -36.48875 | 38076 ft | 467 kts | 288° |
| 2026-05-01 14:28 | 72.69937 | -36.69615 | 38079 ft | 467 kts | 288° |
| 2026-05-01 14:29 | 72.71998 | -36.90181 | 38084 ft | 467 kts | 288° |
| 2026-05-01 14:30 | 72.76090 | -37.31787 | 38090 ft | 468 kts | 287° |
| 2026-05-01 14:31 | 72.79107 | -37.63159 | 38099 ft | 468 kts | 287° |
| 2026-05-01 14:31 | 72.81087 | -37.84089 | 38103 ft | 468 kts | 287° |
| 2026-05-01 14:32 | 72.83042 | -38.05033 | 38106 ft | 468 kts | 287° |
| 2026-05-01 14:32 | 72.84987 | -38.26139 | 38111 ft | 468 kts | 286° |
| 2026-05-01 14:33 | 72.86894 | -38.47128 | 38115 ft | 468 kts | 286° |
| 2026-05-01 14:33 | 72.88793 | -38.68310 | 38120 ft | 468 kts | 286° |
| 2026-05-01 14:34 | 72.90672 | -38.89553 | 38116 ft | 468 kts | 285° |
| 2026-05-01 14:34 | 72.92516 | -39.10707 | 38125 ft | 469 kts | 285° |
| 2026-05-01 14:35 | 72.94343 | -39.31953 | 38126 ft | 469 kts | 285° |
| 2026-05-01 14:35 | 72.96160 | -39.53382 | 38128 ft | 469 kts | 285° |
| 2026-05-01 14:36 | 72.97941 | -39.74702 | 38126 ft | 469 kts | 285° |
| 2026-05-01 14:36 | 72.99691 | -39.96170 | 38135 ft | 469 kts | 283° |
| 2026-05-01 14:37 | 73.00914 | -40.18004 | 38136 ft | 468 kts | 279° |
| 2026-05-01 14:37 | 73.01975 | -40.39995 | 38139 ft | 468 kts | 278° |
| 2026-05-01 14:38 | 73.02990 | -40.62057 | 38138 ft | 468 kts | 278° |
| 2026-05-01 14:38 | 73.03986 | -40.84116 | 38141 ft | 468 kts | 278° |
| 2026-05-01 14:39 | 73.04961 | -41.06098 | 38142 ft | 468 kts | 278° |
| 2026-05-01 14:39 | 73.05915 | -41.28128 | 38143 ft | 468 kts | 278° |
| 2026-05-01 14:40 | 73.06850 | -41.50278 | 38147 ft | 468 kts | 277° |
| 2026-05-01 14:40 | 73.07757 | -41.72345 | 38151 ft | 468 kts | 277° |
| 2026-05-01 14:41 | 73.08644 | -41.94548 | 38156 ft | 468 kts | 277° |
| 2026-05-01 14:41 | 73.09508 | -42.16817 | 38158 ft | 468 kts | 277° |
| 2026-05-01 14:42 | 73.10342 | -42.38916 | 38155 ft | 469 kts | 277° |
| 2026-05-01 14:42 | 73.11157 | -42.61200 | 38159 ft | 469 kts | 276° |
| 2026-05-01 14:43 | 73.11944 | -42.83370 | 38157 ft | 469 kts | 276° |
| 2026-05-01 14:43 | 73.12712 | -43.05721 | 38159 ft | 469 kts | 276° |
| 2026-05-01 14:44 | 73.13451 | -43.27910 | 38164 ft | 469 kts | 276° |
| 2026-05-01 14:44 | 73.14515 | -43.61284 | 38166 ft | 469 kts | 276° |
| 2026-05-01 14:45 | 73.15528 | -43.94804 | 38166 ft | 468 kts | 275° |
| 2026-05-01 14:46 | 73.16174 | -44.17175 | 38168 ft | 468 kts | 275° |
| 2026-05-01 14:46 | 73.17094 | -44.50671 | 38162 ft | 468 kts | 275° |
| 2026-05-01 14:47 | 73.17679 | -44.73080 | 38167 ft | 468 kts | 274° |
| 2026-05-01 14:48 | 73.18512 | -45.06772 | 38173 ft | 469 kts | 274° |
| 2026-05-01 14:48 | 73.19287 | -45.40376 | 38172 ft | 469 kts | 274° |
| 2026-05-01 14:49 | 73.20237 | -45.85267 | 38174 ft | 469 kts | 273° |
| 2026-05-01 14:50 | 73.21090 | -46.30244 | 38171 ft | 469 kts | 273° |
| 2026-05-01 14:51 | 73.21668 | -46.64158 | 38169 ft | 469 kts | 272° |
| 2026-05-01 14:52 | 73.22186 | -46.97829 | 38172 ft | 470 kts | 272° |
| 2026-05-01 14:53 | 73.22653 | -47.31698 | 38177 ft | 470 kts | 272° |
| 2026-05-01 14:53 | 73.22933 | -47.54304 | 38174 ft | 470 kts | 271° |
| 2026-05-01 14:54 | 73.23190 | -47.76999 | 38178 ft | 470 kts | 271° |
| 2026-05-01 14:54 | 73.23419 | -47.99512 | 38176 ft | 470 kts | 271° |
| 2026-05-01 14:55 | 73.23625 | -48.22099 | 38178 ft | 470 kts | 271° |
| 2026-05-01 14:55 | 73.23808 | -48.44807 | 38176 ft | 470 kts | 270° |
| 2026-05-01 14:56 | 73.23964 | -48.67369 | 38179 ft | 470 kts | 270° |
| 2026-05-01 14:56 | 73.24097 | -48.90084 | 38173 ft | 470 kts | 270° |
| 2026-05-01 14:57 | 73.24205 | -49.12783 | 38180 ft | 470 kts | 270° |
| 2026-05-01 14:57 | 73.24320 | -49.46700 | 38177 ft | 471 kts | 269° |
| 2026-05-01 14:58 | 73.24365 | -49.69399 | 38176 ft | 471 kts | 269° |
| 2026-05-01 14:58 | 73.24386 | -49.91975 | 38174 ft | 471 kts | 269° |
| 2026-05-01 14:59 | 73.24382 | -50.14739 | 38176 ft | 471 kts | 269° |
| 2026-05-01 14:59 | 73.24354 | -50.37468 | 38178 ft | 471 kts | 269° |
| 2026-05-01 15:00 | 73.24265 | -50.71427 | 38172 ft | 471 kts | 268° |
| 2026-05-01 15:01 | 73.24174 | -50.94218 | 38181 ft | 472 kts | 268° |
| 2026-05-01 15:01 | 73.24058 | -51.16853 | 38179 ft | 472 kts | 268° |
| 2026-05-01 15:02 | 73.23918 | -51.39582 | 38176 ft | 472 kts | 268° |
| 2026-05-01 15:02 | 73.23753 | -51.62205 | 38182 ft | 472 kts | 267° |
| 2026-05-01 15:03 | 73.23562 | -51.85005 | 38185 ft | 472 kts | 267° |
| 2026-05-01 15:03 | 73.23348 | -52.07629 | 38182 ft | 472 kts | 267° |
| 2026-05-01 15:04 | 73.23107 | -52.30407 | 38178 ft | 472 kts | 266° |
| 2026-05-01 15:04 | 73.22842 | -52.53197 | 38171 ft | 473 kts | 266° |
| 2026-05-01 15:05 | 73.22553 | -52.75814 | 38169 ft | 473 kts | 266° |
| 2026-05-01 15:05 | 73.22292 | -52.94762 | 38167 ft | 473 kts | 266° |
| 2026-05-01 15:06 | 73.21897 | -53.21275 | 38160 ft | 474 kts | 266° |
| 2026-05-01 15:06 | 73.21593 | -53.40309 | 38157 ft | 474 kts | 265° |
| 2026-05-01 15:07 | 73.21207 | -53.63062 | 38157 ft | 474 kts | 265° |